createdAt,value
2022-09-23T00:00:19.000Z,28
2022-09-23T00:02:41.000Z,27.63
2022-09-23T00:05:07.000Z,27.77
2022-09-23T00:07:32.000Z,27.95
2022-09-23T00:09:59.000Z,26.02
2022-09-23T00:12:25.000Z,25.85
2022-09-23T00:14:52.000Z,26.3
2022-09-23T00:17:17.000Z,26.13
2022-09-23T00:19:42.000Z,25.27
2022-09-23T00:22:09.000Z,25.72
2022-09-23T00:24:35.000Z,24.95
2022-09-23T00:27:01.000Z,24.6
2022-09-23T00:29:28.000Z,25.15
2022-09-23T00:31:52.000Z,26.55
2022-09-23T00:34:18.000Z,26.55
2022-09-23T00:36:44.000Z,26.2
2022-09-23T00:39:10.000Z,25.6
2022-09-23T00:41:36.000Z,25.43
2022-09-23T00:44:01.000Z,24.13
2022-09-23T00:46:27.000Z,23.42
2022-09-23T00:48:53.000Z,23.47
2022-09-23T00:51:19.000Z,22.63
2022-09-23T00:53:46.000Z,23.1
2022-09-23T00:56:11.000Z,22.3
2022-09-23T00:58:37.000Z,23.9
2022-09-23T01:01:03.000Z,22.65
2022-09-23T01:03:29.000Z,22.93
2022-09-23T01:05:55.000Z,21.8
2022-09-23T01:08:21.000Z,21.53
2022-09-23T01:10:47.000Z,21.8
2022-09-23T01:13:13.000Z,22.32
2022-09-23T01:15:39.000Z,20.8
2022-09-23T01:18:09.000Z,21.8
2022-09-23T01:20:32.000Z,21.55
2022-09-23T01:22:57.000Z,21.23
2022-09-23T01:25:24.000Z,20
2022-09-23T01:27:49.000Z,19.2
2022-09-23T01:30:18.000Z,18.25
2022-09-23T01:32:40.000Z,17.25
2022-09-23T01:35:08.000Z,17.9
2022-09-23T01:37:33.000Z,17.6
2022-09-23T01:39:59.000Z,17.62
2022-09-23T01:42:24.000Z,18.5
2022-09-23T01:44:50.000Z,18.2
2022-09-23T01:47:16.000Z,18.2
2022-09-23T01:49:43.000Z,17.75
2022-09-23T01:52:08.000Z,16.23
2022-09-23T01:54:33.000Z,16.85
2022-09-23T01:57:00.000Z,15.9
2022-09-23T01:59:25.000Z,16.97
2022-09-23T02:01:52.000Z,16.3
2022-09-23T02:04:18.000Z,16.48
2022-09-23T02:06:44.000Z,15.93
2022-09-23T02:09:11.000Z,16.32
2022-09-23T02:11:36.000Z,15.87
2022-09-23T02:14:03.000Z,15.78
2022-09-23T02:16:28.000Z,16.93
2022-09-23T02:18:55.000Z,15.78
2022-09-23T02:21:20.000Z,15.72
2022-09-23T02:23:46.000Z,15.68
2022-09-23T02:26:11.000Z,15.35
2022-09-23T02:28:36.000Z,16.17
2022-09-23T02:31:02.000Z,16.1
2022-09-23T02:33:29.000Z,15.85
2022-09-23T02:35:54.000Z,17.03
2022-09-23T02:38:21.000Z,16.73
2022-09-23T02:40:45.000Z,17.1
2022-09-23T02:43:12.000Z,17.83
2022-09-23T02:45:38.000Z,16.7
2022-09-23T02:48:05.000Z,18.17
2022-09-23T02:50:29.000Z,16.73
2022-09-23T02:52:56.000Z,17.43
2022-09-23T02:55:21.000Z,16.27
2022-09-23T02:57:46.000Z,16.12
2022-09-23T03:00:18.000Z,16.8
2022-09-23T03:02:38.000Z,16.7
2022-09-23T03:05:05.000Z,16.55
2022-09-23T03:07:31.000Z,16.33
2022-09-23T03:09:55.000Z,16.7
2022-09-23T03:12:21.000Z,17.3
2022-09-23T03:14:48.000Z,16.32
2022-09-23T03:17:13.000Z,17.07
2022-09-23T03:19:39.000Z,16.9
2022-09-23T03:22:06.000Z,16.53
2022-09-23T03:24:31.000Z,16.7
2022-09-23T03:26:57.000Z,16
2022-09-23T03:29:24.000Z,16.47
2022-09-23T03:31:49.000Z,15.8
2022-09-23T03:34:17.000Z,14.9
2022-09-23T03:36:41.000Z,15.6
2022-09-23T03:39:08.000Z,15.45
2022-09-23T03:41:32.000Z,15.27
2022-09-23T03:43:58.000Z,14.9
2022-09-23T03:46:27.000Z,14.78
2022-09-23T03:48:53.000Z,15.23
2022-09-23T03:51:19.000Z,14.2
2022-09-23T03:53:44.000Z,14.17
2022-09-23T03:56:11.000Z,15.28
2022-09-23T03:58:37.000Z,15.63
2022-09-23T04:01:03.000Z,14.9
2022-09-23T04:03:29.000Z,15
2022-09-23T04:05:55.000Z,15.25
2022-09-23T04:08:24.000Z,14.8
2022-09-23T04:10:50.000Z,15.2
2022-09-23T04:13:15.000Z,14.38
2022-09-23T04:15:41.000Z,15.13
2022-09-23T04:18:09.000Z,14.53
2022-09-23T04:20:33.000Z,15.9
2022-09-23T04:22:59.000Z,14.8
2022-09-23T04:25:24.000Z,15.35
2022-09-23T04:27:49.000Z,14.9
2022-09-23T04:30:21.000Z,14.75
2022-09-23T04:32:42.000Z,15.08
2022-09-23T04:35:10.000Z,14
2022-09-23T04:37:34.000Z,14.6
2022-09-23T04:40:00.000Z,14.93
2022-09-23T04:42:27.000Z,14.47
2022-09-23T04:44:52.000Z,14.35
2022-09-23T04:47:19.000Z,14.63
2022-09-23T04:49:49.000Z,14.58
2022-09-23T04:52:10.000Z,14.35
2022-09-23T04:54:37.000Z,14.28
2022-09-23T04:57:02.000Z,14.55
2022-09-23T04:59:28.000Z,13.73
2022-09-23T05:01:54.000Z,13.95
2022-09-23T05:04:19.000Z,14.03
2022-09-23T05:06:46.000Z,14.8
2022-09-23T05:09:12.000Z,14.1
2022-09-23T05:11:37.000Z,15.23
2022-09-23T05:14:05.000Z,15.13
2022-09-23T05:16:32.000Z,14.95
2022-09-23T05:18:55.000Z,15.97
2022-09-23T05:21:23.000Z,15.57
2022-09-23T05:23:54.000Z,16.27
2022-09-23T05:26:13.000Z,17.2
2022-09-23T05:28:40.000Z,16.77
2022-09-23T05:31:07.000Z,16.37
2022-09-23T05:33:32.000Z,14.9
2022-09-23T05:35:58.000Z,15.53
2022-09-23T05:38:25.000Z,15.98
2022-09-23T05:40:51.000Z,17.42
2022-09-23T05:43:16.000Z,19.55
2022-09-23T05:45:43.000Z,17.63
2022-09-23T05:48:11.000Z,18.12
2022-09-23T05:50:36.000Z,19.17
2022-09-23T05:53:02.000Z,21.35
2022-09-23T05:55:32.000Z,20.97
2022-09-23T05:57:54.000Z,19.5
2022-09-23T06:00:25.000Z,20.08
2022-09-23T06:02:45.000Z,20.32
2022-09-23T06:05:12.000Z,20.32
2022-09-23T06:07:38.000Z,19.77
2022-09-23T06:10:05.000Z,20.27
2022-09-23T06:12:30.000Z,20.73
2022-09-23T06:15:01.000Z,20.33
2022-09-23T06:17:28.000Z,21.25
2022-09-23T06:19:55.000Z,21.93
2022-09-23T06:22:23.000Z,19.3
2022-09-23T06:24:48.000Z,20.8
2022-09-23T06:27:14.000Z,19.65
2022-09-23T06:29:39.000Z,19.97
2022-09-23T06:32:05.000Z,19.25
2022-09-23T06:34:31.000Z,19.05
2022-09-23T06:36:57.000Z,16.12
2022-09-23T06:39:27.000Z,16.62
2022-09-23T06:41:53.000Z,17.95
2022-09-23T06:44:20.000Z,17.7
2022-09-23T06:46:44.000Z,15.4
2022-09-23T06:49:11.000Z,15.43
2022-09-23T06:51:37.000Z,14.95
2022-09-23T06:54:03.000Z,15.43
2022-09-23T06:56:28.000Z,15.55
2022-09-23T06:58:56.000Z,15.95
2022-09-23T07:01:22.000Z,16.32
2022-09-23T07:03:48.000Z,16.3
2022-09-23T07:06:16.000Z,15.72
2022-09-23T07:08:42.000Z,16.55
2022-09-23T07:11:09.000Z,16.7
2022-09-23T07:13:36.000Z,17
2022-09-23T07:16:02.000Z,17.3
2022-09-23T07:18:27.000Z,17.42
2022-09-23T07:20:54.000Z,17.35
2022-09-23T07:23:20.000Z,16.57
2022-09-23T07:25:47.000Z,17.17
2022-09-23T07:28:14.000Z,18.12
2022-09-23T07:30:41.000Z,18.67
2022-09-23T07:33:06.000Z,18.57
2022-09-23T07:35:33.000Z,18.65
2022-09-23T07:37:59.000Z,19.33
2022-09-23T07:40:27.000Z,19.15
2022-09-23T07:42:53.000Z,19.23
2022-09-23T07:45:22.000Z,19.45
2022-09-23T07:47:48.000Z,18.73
2022-09-23T07:50:16.000Z,19.1
2022-09-23T07:52:44.000Z,18.5
2022-09-23T07:55:12.000Z,18.37
2022-09-23T07:57:36.000Z,19.1
2022-09-23T08:00:04.000Z,19.65
2022-09-23T08:02:27.000Z,18.37
2022-09-23T08:04:54.000Z,17.37
2022-09-23T08:07:21.000Z,16.73
2022-09-23T08:09:46.000Z,16.27
2022-09-23T08:12:12.000Z,15.8
2022-09-23T08:14:38.000Z,14.73
2022-09-23T08:17:04.000Z,14.68
2022-09-23T08:19:30.000Z,13.43
2022-09-23T08:21:56.000Z,14.15
2022-09-23T08:24:22.000Z,13.55
2022-09-23T08:26:49.000Z,13.03
2022-09-23T08:29:21.000Z,11.73
2022-09-23T08:31:47.000Z,12.47
2022-09-23T08:34:14.000Z,12.68
2022-09-23T08:36:40.000Z,12.55
2022-09-23T08:39:07.000Z,12.43
2022-09-23T08:41:34.000Z,12.33
2022-09-23T08:44:00.000Z,12.15
2022-09-23T08:46:26.000Z,12.3
2022-09-23T08:48:51.000Z,11.77
2022-09-23T08:51:19.000Z,11.57
2022-09-23T08:53:44.000Z,12.78
2022-09-23T08:56:10.000Z,14.47
2022-09-23T08:58:37.000Z,15.23
2022-09-23T09:01:03.000Z,15.88
2022-09-23T09:03:29.000Z,16.65
2022-09-23T09:05:55.000Z,17.15
2022-09-23T09:08:21.000Z,17.15
2022-09-23T09:10:46.000Z,16.07
2022-09-23T09:13:12.000Z,15.73
2022-09-23T09:18:04.000Z,15.48
2022-09-23T09:20:37.000Z,15.32
2022-09-23T09:22:57.000Z,13.95
2022-09-23T09:25:24.000Z,15.23
2022-09-23T09:27:50.000Z,14.43
2022-09-23T09:30:20.000Z,14.9
2022-09-23T09:32:42.000Z,15.3
2022-09-23T09:35:07.000Z,15.1
2022-09-23T09:37:34.000Z,15.68
2022-09-23T09:40:00.000Z,16.83
2022-09-23T09:42:26.000Z,17.2
2022-09-23T09:44:52.000Z,16.87
2022-09-23T09:47:19.000Z,17.37
2022-09-23T09:49:44.000Z,19.17
2022-09-23T09:52:12.000Z,20
2022-09-23T09:54:36.000Z,18.73
2022-09-23T09:57:02.000Z,20.1
2022-09-23T09:59:29.000Z,18.37
2022-09-23T10:01:55.000Z,19.48
2022-09-23T10:04:20.000Z,21.48
2022-09-23T10:06:46.000Z,22.67
2022-09-23T10:09:13.000Z,25.37
2022-09-23T10:11:38.000Z,24.92
2022-09-23T10:14:06.000Z,25.13
2022-09-23T10:16:30.000Z,24.1
2022-09-23T10:18:56.000Z,24.77
2022-09-23T10:21:24.000Z,24.87
2022-09-23T10:23:50.000Z,25.72
2022-09-23T10:26:18.000Z,26.27
2022-09-23T10:28:43.000Z,26.07
2022-09-23T10:31:11.000Z,27.65
2022-09-23T10:33:37.000Z,28.2
2022-09-23T10:36:02.000Z,28.8
2022-09-23T10:38:28.000Z,26.1
2022-09-23T10:40:54.000Z,30.23
2022-09-23T10:43:22.000Z,28.45
2022-09-23T10:45:47.000Z,28.47
2022-09-23T10:48:13.000Z,27.35
2022-09-23T10:50:38.000Z,30.43
2022-09-23T10:53:05.000Z,31.43
2022-09-23T10:57:56.000Z,33.93
2022-09-23T11:00:34.000Z,33.1
2022-09-23T11:02:50.000Z,36.25
2022-09-23T11:05:16.000Z,37.33
2022-09-23T11:07:42.000Z,34.77
2022-09-23T11:10:13.000Z,33.15
2022-09-23T11:12:36.000Z,32.13
2022-09-23T11:15:09.000Z,35.13
2022-09-23T11:17:32.000Z,33.38
2022-09-23T11:20:01.000Z,31.87
2022-09-23T11:24:58.000Z,33.75
2022-09-23T11:27:24.000Z,32.27
2022-09-23T11:29:52.000Z,33.4
2022-09-23T11:32:21.000Z,33.7
2022-09-23T11:34:47.000Z,34.65
2022-09-23T11:37:13.000Z,34.2
2022-09-23T11:39:39.000Z,32.55
2022-09-23T11:42:11.000Z,33.5
2022-09-23T11:44:40.000Z,34.23
2022-09-23T11:47:10.000Z,37.38
2022-09-23T11:49:36.000Z,34.78
2022-09-23T11:52:06.000Z,35.52
2022-09-23T11:54:32.000Z,35.43
2022-09-23T11:59:29.000Z,35.65
2022-09-23T12:01:57.000Z,35.5
2022-09-23T12:04:25.000Z,34.15
2022-09-23T12:06:51.000Z,35.83
2022-09-23T12:09:23.000Z,35.55
2022-09-23T12:11:48.000Z,35.6
2022-09-23T12:14:16.000Z,36.17
2022-09-23T12:16:41.000Z,36.1
2022-09-23T12:19:11.000Z,33.65
2022-09-23T12:23:59.000Z,35.3
2022-09-23T12:26:26.000Z,33.7
2022-09-23T12:28:52.000Z,31.97
2022-09-23T12:31:18.000Z,34.33
2022-09-23T12:33:45.000Z,33.45
2022-09-23T12:36:10.000Z,32.63
2022-09-23T12:38:37.000Z,32.5
2022-09-23T12:41:06.000Z,34.9
2022-09-23T12:43:30.000Z,35.68
2022-09-23T12:45:57.000Z,35.98
2022-09-23T12:48:27.000Z,36.55
2022-09-23T12:50:54.000Z,34.3
2022-09-23T12:53:24.000Z,35.78
2022-09-23T12:55:53.000Z,37.08
2022-09-23T12:58:18.000Z,37.73
2022-09-23T13:00:46.000Z,38.33
2022-09-23T13:03:14.000Z,38.92
2022-09-23T13:05:40.000Z,37.95
2022-09-23T13:08:06.000Z,36
2022-09-23T13:10:38.000Z,36.33
2022-09-23T13:13:03.000Z,36.6
2022-09-23T13:15:32.000Z,37.4
2022-09-23T13:17:56.000Z,38.93
2022-09-23T13:20:31.000Z,38.37
2022-09-23T13:22:57.000Z,37.65
2022-09-23T13:25:22.000Z,38
2022-09-23T13:27:49.000Z,38
2022-09-23T13:30:19.000Z,39.27
2022-09-23T13:32:42.000Z,39.53
2022-09-23T13:35:10.000Z,38.95
2022-09-23T13:37:36.000Z,37.38
2022-09-23T13:42:33.000Z,37.8
2022-09-23T13:45:04.000Z,36.75
2022-09-23T13:47:29.000Z,38.25
2022-09-23T13:49:57.000Z,37.27
2022-09-23T13:52:23.000Z,37.45
2022-09-23T13:54:48.000Z,37.85
2022-09-23T13:57:14.000Z,37.4
2022-09-23T13:59:41.000Z,38.6
2022-09-23T14:02:08.000Z,38.48
2022-09-23T14:04:40.000Z,39.83
2022-09-23T14:09:40.000Z,40.38
2022-09-23T14:12:04.000Z,40.7
2022-09-23T14:14:34.000Z,39.13
2022-09-23T14:17:00.000Z,40.47
2022-09-23T14:19:27.000Z,41.3
2022-09-23T14:21:52.000Z,41.15
2022-09-23T14:24:19.000Z,43.52
2022-09-23T14:26:47.000Z,43.3
2022-09-23T14:29:14.000Z,46.1
2022-09-23T14:31:41.000Z,43.4
2022-09-23T14:34:07.000Z,43.83
2022-09-23T14:36:36.000Z,43.27
2022-09-23T14:39:03.000Z,44.75
2022-09-23T14:41:39.000Z,46
2022-09-23T14:44:05.000Z,49.03
2022-09-23T14:46:31.000Z,50.73
2022-09-23T14:48:57.000Z,52.2
2022-09-23T14:51:23.000Z,53.42
2022-09-23T14:53:51.000Z,53.95
2022-09-23T14:56:18.000Z,55.17
2022-09-23T14:58:43.000Z,54.1
2022-09-23T15:01:10.000Z,55.2
2022-09-23T15:03:36.000Z,54.67
2022-09-23T15:06:03.000Z,53.92
2022-09-23T15:08:28.000Z,53.4
2022-09-23T15:10:55.000Z,53.4
2022-09-23T15:13:26.000Z,52.03
2022-09-23T15:15:52.000Z,52.83
2022-09-23T15:18:18.000Z,50.3
2022-09-23T15:20:44.000Z,51.23
2022-09-23T15:23:17.000Z,50
2022-09-23T15:25:40.000Z,49.75
2022-09-23T15:28:06.000Z,48.9
2022-09-23T15:30:36.000Z,48.5
2022-09-23T15:32:59.000Z,46.85
2022-09-23T15:35:26.000Z,47.87
2022-09-23T15:37:51.000Z,47.93
2022-09-23T15:40:18.000Z,46.65
2022-09-23T15:42:46.000Z,46.63
2022-09-23T15:45:14.000Z,46.68
2022-09-23T15:47:36.000Z,44.03
2022-09-23T15:50:05.000Z,45.53
2022-09-23T15:52:29.000Z,46.25
2022-09-23T15:54:54.000Z,44.75
2022-09-23T15:57:20.000Z,44.6
2022-09-23T15:59:46.000Z,45.35
2022-09-23T16:02:13.000Z,45.7
2022-09-23T16:04:38.000Z,43.9
2022-09-23T16:07:05.000Z,44.7
2022-09-23T16:09:41.000Z,44.77
2022-09-23T16:11:57.000Z,44.9
2022-09-23T16:14:23.000Z,44.88
2022-09-23T16:16:49.000Z,42.7
2022-09-23T16:19:14.000Z,44.7
2022-09-23T16:21:40.000Z,44.5
2022-09-23T16:24:09.000Z,44.33
2022-09-23T16:26:33.000Z,43.28
2022-09-23T16:29:00.000Z,43.6
2022-09-23T16:31:23.000Z,42.8
2022-09-23T16:33:49.000Z,42.08
2022-09-23T16:36:16.000Z,41.35
2022-09-23T16:38:44.000Z,42.5
2022-09-23T16:41:07.000Z,41.43
2022-09-23T16:43:34.000Z,41.57
2022-09-23T16:45:59.000Z,42.3
2022-09-23T16:48:27.000Z,41.33
2022-09-23T16:50:52.000Z,41.65
2022-09-23T16:53:19.000Z,41.85
2022-09-23T16:55:45.000Z,42.78
2022-09-23T16:58:12.000Z,41.4
2022-09-23T17:00:35.000Z,41.65
2022-09-23T17:03:02.000Z,41.02
2022-09-23T17:05:28.000Z,41.37
2022-09-23T17:07:54.000Z,41.23
2022-09-23T17:10:21.000Z,41.08
2022-09-23T17:12:47.000Z,42.35
2022-09-23T17:15:15.000Z,41.48
2022-09-23T17:17:39.000Z,40.7
2022-09-23T17:20:07.000Z,41.08
2022-09-23T17:22:29.000Z,41.48
2022-09-23T17:24:55.000Z,42.83
2022-09-23T17:27:21.000Z,42.6
2022-09-23T17:29:47.000Z,42.03
2022-09-23T17:32:14.000Z,42.35
2022-09-23T17:34:39.000Z,42.3
2022-09-23T17:37:06.000Z,42.47
2022-09-23T17:39:32.000Z,42.13
2022-09-23T17:41:56.000Z,41.83
2022-09-23T17:44:25.000Z,41.4
2022-09-23T17:46:50.000Z,41.18
2022-09-23T17:49:17.000Z,42.2
2022-09-23T17:51:42.000Z,41.75
2022-09-23T17:54:08.000Z,42.48
2022-09-23T17:56:33.000Z,41.15
2022-09-23T17:58:59.000Z,41.47
2022-09-23T18:01:25.000Z,38.83
2022-09-23T18:03:50.000Z,40.13
2022-09-23T18:06:17.000Z,38.9
2022-09-23T18:08:42.000Z,39.9
2022-09-23T18:11:10.000Z,40.23
2022-09-23T18:13:35.000Z,39.55
2022-09-23T18:16:02.000Z,38.2
2022-09-23T18:18:28.000Z,37.4
2022-09-23T18:20:53.000Z,39
2022-09-23T18:23:20.000Z,38.85
2022-09-23T18:25:45.000Z,38.45
2022-09-23T18:28:12.000Z,37.1
2022-09-23T18:33:04.000Z,36.7
2022-09-23T18:35:29.000Z,37.2
2022-09-23T18:37:55.000Z,36.8
2022-09-23T18:40:23.000Z,37.88
2022-09-23T18:42:48.000Z,37.38
2022-09-23T18:45:15.000Z,37.1
2022-09-23T18:47:40.000Z,37.1
2022-09-23T18:50:07.000Z,38.13
2022-09-23T18:52:32.000Z,40.12
2022-09-23T18:54:57.000Z,38.77
2022-09-23T18:57:23.000Z,39.23
2022-09-23T18:59:49.000Z,39.77
2022-09-23T19:02:16.000Z,38.63
2022-09-23T19:04:41.000Z,40.43
2022-09-23T19:07:08.000Z,39
2022-09-23T19:09:33.000Z,37.98
2022-09-23T19:12:00.000Z,37.5
2022-09-23T19:14:25.000Z,37.25
2022-09-23T19:16:51.000Z,35.85
2022-09-23T19:19:17.000Z,36.67
2022-09-23T19:21:44.000Z,36.17
2022-09-23T19:24:08.000Z,35.67
2022-09-23T19:26:36.000Z,37.1
2022-09-23T19:29:01.000Z,34.78
2022-09-23T19:31:27.000Z,34.87
2022-09-23T19:33:52.000Z,32.5
2022-09-23T19:36:19.000Z,32.17
2022-09-23T19:38:45.000Z,32.33
2022-09-23T19:41:10.000Z,32.98
2022-09-23T19:43:38.000Z,31.2
2022-09-23T19:46:05.000Z,31.2
2022-09-23T19:48:29.000Z,30.75
2022-09-23T19:50:54.000Z,30.95
2022-09-23T19:53:21.000Z,30.2
2022-09-23T19:55:47.000Z,31.37
2022-09-23T19:58:12.000Z,31.48
2022-09-23T20:00:38.000Z,32.1
2022-09-23T20:03:04.000Z,32.08
2022-09-23T20:05:30.000Z,33.1
2022-09-23T20:07:56.000Z,32.47
2022-09-23T20:10:22.000Z,34.08
2022-09-23T20:12:48.000Z,35.05
2022-09-23T20:15:14.000Z,35.78
2022-09-23T20:17:40.000Z,35.8
2022-09-23T20:20:09.000Z,34.78
2022-09-23T20:22:32.000Z,36.23
2022-09-23T20:24:59.000Z,35.88
2022-09-23T20:27:25.000Z,37.1
2022-09-23T20:29:50.000Z,37.37
2022-09-23T20:32:16.000Z,37.43
2022-09-23T20:34:42.000Z,38.1
2022-09-23T20:37:08.000Z,38.7
2022-09-23T20:39:34.000Z,39.6
2022-09-23T20:42:00.000Z,39.23
2022-09-23T20:44:26.000Z,40.92
2022-09-23T20:49:18.000Z,40.17
2022-09-23T20:51:44.000Z,42
2022-09-23T20:54:10.000Z,40.83
2022-09-23T20:56:35.000Z,40.28
2022-09-23T20:59:01.000Z,41.83
2022-09-23T21:01:27.000Z,42.98
2022-09-23T21:03:54.000Z,41.53
2022-09-23T21:06:19.000Z,42.6
2022-09-23T21:08:45.000Z,43.35
2022-09-23T21:11:12.000Z,42.17
2022-09-23T21:13:37.000Z,43
2022-09-23T21:16:06.000Z,42.27
2022-09-23T21:18:29.000Z,42.67
2022-09-23T21:20:55.000Z,44.42
2022-09-23T21:23:21.000Z,42.7
2022-09-23T21:25:47.000Z,41.53
2022-09-23T21:28:12.000Z,42.65
2022-09-23T21:30:39.000Z,41.58
2022-09-23T21:33:04.000Z,40.55
2022-09-23T21:35:31.000Z,41.13
2022-09-23T21:37:56.000Z,40.92
2022-09-23T21:40:23.000Z,39.83
2022-09-23T21:42:49.000Z,41.18
2022-09-23T21:45:19.000Z,39.9
2022-09-23T21:47:42.000Z,40.7
2022-09-23T21:50:12.000Z,40.8
2022-09-23T21:52:33.000Z,40.1
2022-09-23T21:54:58.000Z,39.47
2022-09-23T21:57:24.000Z,39.88
2022-09-23T21:59:51.000Z,41.13
2022-09-23T22:02:17.000Z,41.5
2022-09-23T22:04:42.000Z,38.97
2022-09-23T22:07:08.000Z,40.03
2022-09-23T22:09:34.000Z,40.1
2022-09-23T22:12:00.000Z,39.03
2022-09-23T22:14:26.000Z,39.5
2022-09-23T22:16:53.000Z,37.42
2022-09-23T22:19:17.000Z,38.3
2022-09-23T22:21:44.000Z,37.53
2022-09-23T22:24:10.000Z,37.63
2022-09-23T22:26:36.000Z,35.68
2022-09-23T22:29:02.000Z,36.28
2022-09-23T22:31:28.000Z,35.63
2022-09-23T22:33:53.000Z,36.15
2022-09-23T22:36:20.000Z,34.6
2022-09-23T22:38:45.000Z,34
2022-09-23T22:41:11.000Z,32.8
2022-09-23T22:43:37.000Z,30.97
2022-09-23T22:46:04.000Z,32.08
2022-09-23T22:48:29.000Z,30.9
2022-09-23T22:50:56.000Z,31.5
2022-09-23T22:53:22.000Z,31.85
2022-09-23T22:55:48.000Z,31.85
2022-09-23T23:00:40.000Z,30.27
2022-09-23T23:03:05.000Z,30.6
2022-09-23T23:05:31.000Z,30.48
2022-09-23T23:07:57.000Z,30.4
2022-09-23T23:10:24.000Z,30.08
2022-09-23T23:12:49.000Z,30.65
2022-09-23T23:15:16.000Z,30.02
2022-09-23T23:17:43.000Z,30.4
2022-09-23T23:20:09.000Z,28.38
2022-09-23T23:22:34.000Z,27.97
2022-09-23T23:25:00.000Z,28.83
2022-09-23T23:27:28.000Z,28.87
2022-09-23T23:29:54.000Z,29.9
2022-09-23T23:32:19.000Z,29.65
2022-09-23T23:34:46.000Z,28.42
2022-09-23T23:37:12.000Z,26.77
2022-09-23T23:39:37.000Z,26.67
2022-09-23T23:42:03.000Z,26.63
2022-09-23T23:44:29.000Z,26
2022-09-23T23:46:55.000Z,26.33
2022-09-23T23:49:28.000Z,26.2
2022-09-23T23:52:22.000Z,27.3
2022-09-23T23:54:14.000Z,28.85
2022-09-23T23:56:38.000Z,29.53
2022-09-23T23:59:04.000Z,29.97
